createdAt,value
2023-09-08T00:02:27.416Z,15.98
2023-09-08T00:04:55.617Z,15.96
2023-09-08T00:07:22.844Z,15.95
2023-09-08T00:09:49.940Z,15.91
2023-09-08T00:12:17.766Z,15.87
2023-09-08T00:14:44.950Z,15.82
2023-09-08T00:17:12.058Z,15.79
2023-09-08T00:19:39.392Z,15.77
2023-09-08T00:22:06.451Z,15.74
2023-09-08T00:24:34.313Z,15.69
2023-09-08T00:27:01.657Z,15.64
2023-09-08T00:29:29.014Z,15.60
2023-09-08T00:31:56.328Z,15.57
2023-09-08T00:34:23.383Z,15.51
2023-09-08T00:36:51.517Z,15.44
2023-09-08T00:39:18.725Z,15.39
2023-09-08T00:41:45.768Z,15.33
2023-09-08T00:44:12.741Z,15.29
2023-09-08T00:46:40.715Z,15.26
2023-09-08T00:49:09.369Z,15.22
2023-09-08T00:51:38.144Z,15.19
2023-09-08T00:54:07.001Z,15.15
2023-09-08T00:56:37.387Z,15.12
2023-09-08T00:59:05.897Z,15.09
2023-09-08T01:01:35.028Z,15.06
2023-09-08T01:04:02.925Z,15.02
2023-09-08T01:06:33.191Z,14.99
2023-09-08T01:09:00.700Z,14.95
2023-09-08T01:11:28.617Z,14.91
2023-09-08T01:13:55.566Z,14.86
2023-09-08T01:16:22.848Z,14.83
2023-09-08T01:18:51.173Z,14.80
2023-09-08T01:21:38.780Z,14.76
2023-09-08T01:24:14.939Z,14.72
2023-09-08T01:26:42.485Z,14.69
2023-09-08T01:29:11.290Z,14.65
2023-09-08T01:31:38.904Z,14.62
2023-09-08T01:34:07.540Z,14.58
2023-09-08T01:36:35.641Z,14.53
2023-09-08T01:39:03.375Z,14.51
2023-09-08T01:41:31.821Z,14.47
2023-09-08T01:44:00.601Z,14.44
2023-09-08T01:46:27.585Z,14.42
2023-09-08T01:48:54.566Z,14.39
2023-09-08T01:51:21.558Z,14.38
2023-09-08T01:53:48.583Z,14.36
2023-09-08T01:56:15.517Z,14.33
2023-09-08T01:58:42.657Z,14.30
2023-09-08T02:01:09.757Z,14.29
2023-09-08T02:03:36.762Z,14.28
2023-09-08T02:06:03.839Z,14.27
2023-09-08T02:08:30.769Z,14.26
2023-09-08T02:10:57.719Z,14.23
2023-09-08T02:13:24.679Z,14.20
2023-09-08T02:15:51.913Z,14.18
2023-09-08T02:18:18.995Z,14.16
2023-09-08T02:20:46.021Z,14.15
2023-09-08T02:23:13.022Z,14.14
2023-09-08T02:25:40.005Z,14.13
2023-09-08T02:28:07.002Z,14.11
2023-09-08T02:30:34.031Z,14.10
2023-09-08T02:33:03.373Z,14.09
2023-09-08T02:35:30.442Z,14.07
2023-09-08T02:37:57.793Z,14.04
2023-09-08T02:40:24.749Z,14.03
2023-09-08T02:42:51.781Z,14.02
2023-09-08T02:45:18.843Z,14.00
2023-09-08T02:47:45.909Z,13.98
2023-09-08T02:50:12.894Z,13.96
2023-09-08T02:52:39.833Z,13.94
2023-09-08T02:55:07.391Z,13.92
2023-09-08T02:57:34.344Z,13.90
2023-09-08T03:00:01.436Z,13.89
2023-09-08T03:02:28.591Z,13.86
2023-09-08T03:04:55.737Z,13.83
2023-09-08T03:07:23.122Z,13.79
2023-09-08T03:09:50.069Z,13.75
2023-09-08T03:12:17.064Z,13.71
2023-09-08T03:14:44.144Z,13.68
2023-09-08T03:17:12.982Z,13.59
2023-09-08T03:19:40.090Z,13.49
2023-09-08T03:22:07.028Z,13.41
2023-09-08T03:24:34.003Z,13.30
2023-09-08T03:27:01.050Z,13.18
2023-09-08T03:29:28.140Z,13.11
2023-09-08T03:31:55.427Z,13.05
2023-09-08T03:34:22.549Z,12.99
2023-09-08T03:36:50.009Z,12.96
2023-09-08T03:39:17.094Z,12.95
2023-09-08T03:41:44.077Z,12.94
2023-09-08T03:44:11.046Z,12.91
2023-09-08T03:46:38.157Z,12.88
2023-09-08T03:49:05.402Z,12.84
2023-09-08T03:51:32.416Z,12.80
2023-09-08T03:53:59.491Z,12.75
2023-09-08T03:56:26.830Z,12.72
2023-09-08T03:58:53.809Z,12.69
2023-09-08T04:01:20.751Z,12.66
2023-09-08T04:03:47.753Z,12.63
2023-09-08T04:06:14.759Z,12.59
2023-09-08T04:08:41.714Z,12.56
2023-09-08T04:11:08.749Z,12.54
2023-09-08T04:13:35.966Z,12.53
2023-09-08T04:16:03.316Z,12.51
2023-09-08T04:18:30.398Z,12.50
2023-09-08T04:20:57.478Z,12.49
2023-09-08T04:23:24.533Z,12.47
2023-09-08T04:25:51.476Z,12.47
2023-09-08T04:28:18.469Z,12.46
2023-09-08T04:30:45.443Z,12.47
2023-09-08T04:33:12.940Z,12.47
2023-09-08T04:35:39.994Z,12.46
2023-09-08T04:38:07.804Z,12.45
2023-09-08T04:40:34.854Z,12.44
2023-09-08T04:43:01.819Z,12.45
2023-09-08T04:45:28.933Z,12.45
2023-09-08T04:47:56.055Z,12.45
2023-09-08T04:50:23.267Z,12.46
2023-09-08T04:52:50.268Z,12.48
2023-09-08T04:55:18.042Z,12.50
2023-09-08T04:57:45.275Z,12.53
2023-09-08T05:00:13.185Z,12.59
2023-09-08T05:02:40.281Z,12.67
2023-09-08T05:05:08.000Z,12.76
2023-09-08T05:07:35.043Z,12.85
2023-09-08T05:10:02.039Z,12.95
2023-09-08T05:12:29.125Z,13.04
2023-09-08T05:15:00.444Z,13.14
2023-09-08T05:17:27.483Z,13.25
2023-09-08T05:19:54.497Z,13.35
2023-09-08T05:22:21.704Z,13.45
2023-09-08T05:24:48.842Z,13.55
2023-09-08T05:27:15.872Z,13.66
2023-09-08T05:29:42.876Z,13.77
2023-09-08T05:32:09.795Z,13.87
2023-09-08T05:34:37.187Z,13.98
2023-09-08T05:37:04.213Z,14.08
2023-09-08T05:39:31.221Z,14.19
2023-09-08T05:41:58.231Z,14.29
2023-09-08T05:44:25.666Z,14.39
2023-09-08T05:46:52.825Z,14.49
2023-09-08T05:49:19.937Z,14.59
2023-09-08T05:51:47.212Z,14.68
2023-09-08T05:54:14.167Z,14.78
2023-09-08T05:56:41.099Z,14.87
2023-09-08T05:59:08.054Z,14.98
2023-09-08T06:01:35.199Z,15.08
2023-09-08T06:04:02.844Z,15.21
2023-09-08T06:06:30.078Z,15.45
2023-09-08T06:08:57.207Z,15.76
2023-09-08T06:11:24.275Z,16.05
2023-09-08T06:13:52.787Z,16.22
2023-09-08T06:16:19.790Z,16.32
2023-09-08T06:18:46.864Z,16.39
2023-09-08T06:21:13.828Z,16.46
2023-09-08T06:23:40.993Z,16.54
2023-09-08T06:26:08.144Z,16.62
2023-09-08T06:28:36.136Z,16.70
2023-09-08T06:31:04.669Z,16.79
2023-09-08T06:33:31.876Z,16.88
2023-09-08T06:35:58.913Z,16.98
2023-09-08T06:38:25.934Z,17.06
2023-09-08T06:40:54.329Z,17.15
2023-09-08T06:43:21.321Z,17.25
2023-09-08T06:45:49.711Z,17.35
2023-09-08T06:48:17.393Z,17.45
2023-09-08T06:50:44.480Z,17.55
2023-09-08T06:53:13.044Z,17.66
2023-09-08T06:55:42.095Z,17.76
2023-09-08T06:58:11.052Z,17.87
2023-09-08T07:00:38.151Z,17.99
2023-09-08T07:03:06.350Z,18.09
2023-09-08T07:05:33.437Z,18.20
2023-09-08T07:08:00.445Z,18.32
2023-09-08T07:10:27.589Z,18.44
2023-09-08T07:12:54.576Z,18.55
2023-09-08T07:15:21.694Z,18.68
2023-09-08T07:17:48.699Z,18.78
2023-09-08T07:20:15.844Z,18.88
2023-09-08T07:22:42.789Z,18.99
2023-09-08T07:25:10.170Z,19.10
2023-09-08T07:27:37.181Z,19.18
2023-09-08T07:30:05.395Z,19.28
2023-09-08T07:32:32.456Z,19.35
2023-09-08T07:34:59.450Z,19.43
2023-09-08T07:37:26.577Z,19.49
2023-09-08T07:39:53.557Z,19.57
2023-09-08T07:42:20.630Z,19.65
2023-09-08T07:44:47.983Z,19.74
2023-09-08T07:47:14.927Z,19.87
2023-09-08T07:49:47.976Z,19.99
2023-09-08T07:52:15.268Z,20.10
2023-09-08T07:54:42.522Z,20.22
2023-09-08T07:57:09.814Z,20.32
2023-09-08T07:59:38.062Z,20.40
2023-09-08T08:02:05.321Z,20.48
2023-09-08T08:04:32.474Z,20.57
2023-09-08T08:06:59.562Z,20.66
2023-09-08T08:09:26.594Z,20.76
2023-09-08T08:11:53.613Z,20.88
2023-09-08T08:14:20.577Z,21.03
2023-09-08T08:16:47.619Z,21.18
2023-09-08T08:19:14.621Z,21.30
2023-09-08T08:21:42.576Z,21.42
2023-09-08T08:24:10.728Z,21.55
2023-09-08T08:26:37.714Z,21.68
2023-09-08T08:29:04.774Z,21.83
2023-09-08T08:31:33.560Z,21.99
2023-09-08T08:34:00.642Z,22.18
2023-09-08T08:36:27.705Z,22.40
2023-09-08T08:38:54.784Z,22.64
2023-09-08T08:41:21.812Z,22.90
2023-09-08T08:43:49.803Z,23.07
2023-09-08T08:46:18.250Z,23.23
2023-09-08T08:48:46.310Z,23.48
2023-09-08T08:51:15.232Z,23.73
2023-09-08T08:53:42.487Z,23.99
2023-09-08T08:56:11.017Z,24.17
2023-09-08T08:58:40.054Z,24.30
2023-09-08T09:01:08.073Z,24.48
2023-09-08T09:03:37.990Z,24.64
2023-09-08T09:06:05.295Z,24.81
2023-09-08T09:08:34.146Z,24.93
2023-09-08T09:11:01.555Z,25.05
2023-09-08T09:13:28.572Z,25.22
2023-09-08T09:16:00.847Z,25.41
2023-09-08T09:18:30.655Z,25.60
2023-09-08T09:21:01.237Z,25.80
2023-09-08T09:23:30.689Z,26.03
2023-09-08T09:25:59.238Z,26.20
2023-09-08T09:28:29.308Z,26.37
2023-09-08T09:30:56.653Z,26.58
2023-09-08T09:33:23.955Z,26.74
2023-09-08T09:35:53.860Z,26.92
2023-09-08T09:38:21.930Z,27.15
2023-09-08T09:40:49.598Z,27.40
2023-09-08T09:43:17.458Z,27.61
2023-09-08T09:45:45.510Z,27.80
2023-09-08T09:48:12.862Z,27.93
2023-09-08T09:50:45.188Z,28.12
2023-09-08T09:53:17.648Z,28.28
2023-09-08T09:55:45.841Z,28.46
2023-09-08T09:58:14.434Z,28.64
2023-09-08T10:00:41.819Z,28.81
2023-09-08T10:03:09.914Z,28.94
2023-09-08T10:05:37.990Z,29.10
2023-09-08T10:08:05.866Z,29.29
2023-09-08T10:10:34.980Z,29.57
2023-09-08T10:13:07.892Z,30.00
2023-09-08T10:15:36.960Z,30.33
2023-09-08T10:18:10.907Z,30.43
2023-09-08T10:20:39.809Z,30.51
2023-09-08T10:23:16.266Z,30.62
2023-09-08T10:25:54.130Z,30.75
2023-09-08T10:28:25.523Z,30.89
2023-09-08T10:30:53.393Z,31.01
2023-09-08T10:33:21.050Z,31.13
2023-09-08T10:35:48.375Z,31.35
2023-09-08T10:38:27.572Z,31.57
2023-09-08T10:41:17.738Z,31.83
2023-09-08T10:43:45.276Z,32.06
2023-09-08T10:46:23.623Z,32.30
2023-09-08T10:48:50.635Z,32.52
2023-09-08T10:51:17.850Z,32.63
2023-09-08T10:53:49.949Z,32.61
2023-09-08T10:56:18.378Z,32.68
2023-09-08T10:58:51.882Z,32.81
2023-09-08T11:01:28.140Z,32.99
2023-09-08T11:03:55.728Z,33.17
2023-09-08T11:06:23.104Z,33.25
2023-09-08T11:08:56.083Z,33.29
2023-09-08T11:11:23.271Z,33.33
2023-09-08T11:13:50.455Z,33.43
2023-09-08T11:16:25.774Z,33.33
2023-09-08T11:18:52.996Z,33.38
2023-09-08T11:21:20.127Z,33.50
2023-09-08T11:23:47.960Z,33.59
2023-09-08T11:26:15.150Z,33.57
2023-09-08T11:28:42.471Z,33.66
2023-09-08T11:31:12.525Z,33.76
2023-09-08T11:33:40.457Z,33.98
2023-09-08T11:36:15.162Z,34.13
2023-09-08T11:38:44.522Z,34.20
2023-09-08T11:41:11.996Z,34.38
2023-09-08T11:43:41.963Z,34.37
2023-09-08T11:46:11.078Z,34.30
2023-09-08T11:48:39.050Z,34.22
2023-09-08T11:51:09.415Z,34.16
2023-09-08T11:53:37.910Z,34.15
2023-09-08T11:56:05.885Z,34.32
2023-09-08T11:58:34.322Z,34.39
2023-09-08T12:01:03.864Z,34.36
2023-09-08T12:03:30.995Z,34.38
2023-09-08T12:05:59.146Z,34.36
2023-09-08T12:08:29.727Z,34.31
2023-09-08T12:10:56.789Z,34.25
2023-09-08T12:13:24.471Z,34.30
2023-09-08T12:15:51.777Z,34.36
2023-09-08T12:18:19.092Z,34.37
2023-09-08T12:20:46.202Z,34.36
2023-09-08T12:23:22.799Z,34.40
2023-09-08T12:25:52.832Z,34.37
2023-09-08T12:28:21.987Z,34.28
2023-09-08T12:30:55.443Z,34.16
2023-09-08T12:33:22.819Z,34.07
2023-09-08T12:35:51.452Z,34.18
2023-09-08T12:38:18.818Z,34.33
2023-09-08T12:40:45.921Z,34.40
2023-09-08T12:43:20.302Z,34.55
2023-09-08T12:45:56.629Z,34.62
2023-09-08T12:48:24.459Z,34.70
2023-09-08T12:50:51.950Z,34.76
2023-09-08T12:53:19.203Z,34.82
2023-09-08T12:55:47.772Z,34.74
2023-09-08T12:58:16.526Z,34.64
2023-09-08T13:00:44.793Z,34.54
2023-09-08T13:03:12.030Z,34.48
2023-09-08T13:05:39.570Z,34.48
2023-09-08T13:08:07.288Z,34.53
2023-09-08T13:10:34.356Z,34.59
2023-09-08T13:13:01.657Z,34.68
2023-09-08T13:15:28.716Z,34.73
2023-09-08T13:17:56.833Z,34.78
2023-09-08T13:20:24.433Z,34.75
2023-09-08T13:22:51.560Z,34.69
2023-09-08T13:25:18.802Z,34.67
2023-09-08T13:27:48.192Z,34.74
2023-09-08T13:30:16.622Z,34.89
2023-09-08T13:32:45.419Z,34.99
2023-09-08T13:35:12.623Z,35.00
2023-09-08T13:37:40.025Z,34.95
2023-09-08T13:40:08.421Z,34.80
2023-09-08T13:42:36.418Z,34.77
2023-09-08T13:45:05.052Z,34.89
2023-09-08T13:47:33.264Z,34.96
2023-09-08T13:50:02.623Z,35.02
2023-09-08T13:52:32.057Z,35.09
2023-09-08T13:55:27.873Z,35.30
2023-09-08T13:57:49.396Z,35.63
2023-09-08T14:00:22.766Z,35.76
2023-09-08T14:02:51.749Z,35.79
2023-09-08T14:05:27.200Z,35.81
2023-09-08T14:08:05.290Z,35.88
2023-09-08T14:13:05.159Z,36.07
2023-09-08T14:15:32.615Z,36.22
2023-09-08T14:18:16.283Z,36.36
2023-09-08T14:20:43.813Z,36.47
2023-09-08T14:23:14.262Z,36.63
2023-09-08T14:25:41.911Z,36.64
2023-09-08T14:28:09.268Z,36.64
2023-09-08T14:30:36.712Z,36.69
2023-09-08T14:33:07.337Z,36.73
2023-09-08T14:35:35.697Z,36.72
2023-09-08T14:38:03.340Z,36.78
2023-09-08T14:40:30.449Z,36.87
2023-09-08T14:42:57.566Z,36.96
2023-09-08T14:45:27.118Z,37.05
2023-09-08T14:47:59.437Z,37.14
2023-09-08T14:50:34.685Z,37.21
2023-09-08T14:53:04.077Z,37.26
2023-09-08T14:55:45.103Z,37.50
2023-09-08T14:58:12.781Z,37.57
2023-09-08T15:00:41.043Z,37.59
2023-09-08T15:03:09.148Z,37.64
2023-09-08T15:05:36.667Z,37.71
2023-09-08T15:08:04.163Z,37.78
2023-09-08T15:10:33.953Z,37.83
2023-09-08T15:13:01.351Z,37.94
2023-09-08T15:15:40.249Z,38.02
2023-09-08T15:18:28.006Z,38.08
2023-09-08T15:21:00.004Z,38.13
2023-09-08T15:23:56.003Z,38.23
2023-09-08T15:26:30.706Z,38.34
2023-09-08T15:29:15.700Z,38.46
2023-09-08T15:32:06.954Z,38.63
2023-09-08T15:34:41.928Z,38.71
2023-09-08T15:37:12.277Z,38.69
2023-09-08T15:40:05.212Z,38.64
2023-09-08T15:43:00.532Z,38.63
2023-09-08T15:45:37.948Z,38.62
2023-09-08T15:48:33.811Z,38.60
2023-09-08T15:51:01.281Z,38.98
2023-09-08T15:53:51.486Z,39.46
2023-09-08T15:56:19.128Z,39.35
2023-09-08T15:58:59.176Z,39.08
2023-09-08T16:01:26.587Z,38.87
2023-09-08T16:03:54.318Z,38.69
2023-09-08T16:06:35.958Z,38.78
2023-09-08T16:09:23.494Z,38.96
2023-09-08T16:11:59.233Z,39.33
2023-09-08T16:14:50.762Z,39.61
2023-09-08T16:17:28.032Z,39.81
2023-09-08T16:20:39.424Z,39.87
2023-09-08T16:23:30.083Z,39.85
2023-09-08T16:26:09.708Z,39.80
2023-09-08T16:28:36.838Z,39.64
2023-09-08T16:31:18.788Z,39.47
2023-09-08T16:33:54.163Z,39.28
2023-09-08T16:36:49.189Z,39.01
2023-09-08T16:39:53.120Z,38.60
2023-09-08T16:43:05.707Z,38.09
2023-09-08T16:48:03.822Z,36.90
2023-09-08T16:50:32.452Z,36.22
2023-09-08T16:53:00.952Z,35.24
2023-09-08T16:55:29.399Z,34.32
2023-09-08T16:57:57.860Z,33.35
2023-09-08T17:00:26.281Z,32.23
2023-09-08T17:02:54.779Z,31.19
2023-09-08T17:05:23.359Z,30.46
2023-09-08T17:07:53.519Z,29.68
2023-09-08T17:10:21.929Z,29.01
2023-09-08T17:12:50.322Z,28.39
2023-09-08T17:15:18.720Z,27.91
2023-09-08T17:17:47.105Z,27.43
2023-09-08T17:20:15.676Z,27.02
2023-09-08T17:22:44.100Z,26.66
2023-09-08T17:25:13.220Z,26.33
2023-09-08T17:27:44.415Z,26.00
2023-09-08T17:30:13.734Z,25.65
2023-09-08T17:32:42.075Z,25.34
2023-09-08T17:35:10.604Z,25.07
2023-09-08T17:37:39.020Z,24.82
2023-09-08T17:40:10.919Z,24.59
2023-09-08T17:42:39.303Z,24.41
2023-09-08T17:45:08.813Z,24.24
2023-09-08T17:47:37.325Z,24.05
2023-09-08T17:50:06.802Z,23.89
2023-09-08T17:52:35.169Z,23.71
2023-09-08T17:55:05.191Z,23.48
2023-09-08T17:57:33.596Z,23.25
2023-09-08T18:00:06.077Z,23.04
2023-09-08T18:02:34.804Z,22.85
2023-09-08T18:05:03.207Z,22.67
2023-09-08T18:07:32.491Z,22.52
2023-09-08T18:10:01.115Z,22.38
2023-09-08T18:12:29.835Z,22.23
2023-09-08T18:14:58.244Z,22.09
2023-09-08T18:17:27.114Z,22.01
2023-09-08T18:19:55.653Z,22.12
2023-09-08T18:36:56.346Z,21.32
2023-09-08T18:39:24.720Z,21.22
2023-09-08T18:41:53.133Z,21.11
2023-09-08T18:44:21.543Z,21.03
2023-09-08T18:46:50.388Z,20.94
2023-09-08T18:49:20.379Z,20.84
2023-09-08T18:51:50.169Z,20.74
2023-09-08T18:54:18.571Z,20.68
2023-09-08T18:56:46.974Z,20.61
2023-09-08T18:59:15.278Z,20.51
2023-09-08T19:01:43.702Z,20.37
2023-09-08T19:04:12.752Z,20.24
2023-09-08T19:06:41.111Z,20.14
2023-09-08T19:09:09.448Z,20.04
2023-09-08T19:11:37.876Z,19.96
2023-09-08T19:14:06.302Z,19.90
2023-09-08T19:16:34.798Z,19.86
2023-09-08T19:19:03.462Z,19.80
2023-09-08T19:21:31.846Z,19.76
2023-09-08T19:24:00.232Z,19.71
2023-09-08T19:26:28.586Z,19.63
2023-09-08T19:28:56.965Z,19.54
2023-09-08T19:31:25.368Z,19.46
2023-09-08T19:33:53.805Z,19.37
2023-09-08T19:36:22.164Z,19.31
2023-09-08T19:38:53.129Z,19.23
2023-09-08T19:41:25.063Z,19.15
2023-09-08T19:43:53.733Z,19.12
2023-09-08T19:46:22.107Z,19.09
2023-09-08T19:48:50.873Z,19.06
2023-09-08T19:51:22.355Z,19.01
2023-09-08T19:53:51.397Z,18.94
2023-09-08T19:56:19.770Z,18.90
2023-09-08T19:58:56.021Z,18.90
2023-09-08T20:01:24.493Z,18.88
2023-09-08T20:03:52.872Z,18.87
2023-09-08T20:06:21.309Z,18.87
2023-09-08T20:08:49.910Z,18.87
2023-09-08T20:11:18.235Z,18.86
2023-09-08T20:13:46.615Z,18.86
2023-09-08T20:16:14.995Z,18.85
2023-09-08T20:18:43.467Z,18.83
2023-09-08T20:21:12.086Z,18.79
2023-09-08T20:23:40.629Z,18.76
2023-09-08T20:26:09.938Z,18.73
2023-09-08T20:28:38.465Z,18.69
2023-09-08T20:31:16.456Z,18.64
2023-09-08T20:33:47.221Z,18.60
2023-09-08T20:36:17.944Z,18.58
2023-09-08T20:38:46.836Z,18.53
2023-09-08T20:41:15.217Z,18.47
2023-09-08T20:43:43.717Z,18.42
2023-09-08T20:46:12.122Z,18.37
2023-09-08T20:48:41.090Z,18.35
2023-09-08T20:51:12.459Z,18.25
2023-09-08T20:53:43.194Z,18.18
2023-09-08T20:56:11.839Z,18.13
2023-09-08T20:58:42.565Z,18.08
2023-09-08T21:01:11.429Z,18.03
2023-09-08T21:03:40.490Z,17.98
2023-09-08T21:06:11.415Z,17.92
2023-09-08T21:08:39.970Z,17.84
2023-09-08T21:11:08.724Z,17.80
2023-09-08T21:13:37.387Z,17.75
2023-09-08T21:16:06.119Z,17.71
2023-09-08T21:18:34.534Z,17.67
2023-09-08T21:21:04.859Z,17.62
2023-09-08T21:23:33.210Z,17.57
2023-09-08T21:26:05.932Z,17.50
2023-09-08T21:28:34.501Z,17.44
2023-09-08T21:31:08.927Z,17.40
2023-09-08T21:33:39.458Z,17.35
2023-09-08T21:36:10.621Z,17.30
2023-09-08T21:38:39.416Z,17.27
2023-09-08T21:41:11.861Z,17.23
2023-09-08T21:43:40.569Z,17.17
2023-09-08T21:46:10.476Z,17.12
2023-09-08T21:48:39.736Z,17.05
2023-09-08T21:51:09.870Z,17.00
2023-09-08T21:53:38.669Z,16.97
2023-09-08T21:56:07.368Z,16.93
2023-09-08T21:58:35.957Z,16.90
2023-09-08T22:01:05.330Z,16.85
2023-09-08T22:03:33.886Z,16.81
2023-09-08T22:06:02.529Z,16.77
2023-09-08T22:08:30.900Z,16.74
2023-09-08T22:11:04.604Z,16.71
2023-09-08T22:13:36.734Z,16.71
2023-09-08T22:16:06.320Z,16.70
2023-09-08T22:18:35.644Z,16.69
2023-09-08T22:21:05.688Z,16.67
2023-09-08T22:23:34.421Z,16.64
2023-09-08T22:26:03.991Z,16.61
2023-09-08T22:28:32.398Z,16.60
2023-09-08T22:31:00.744Z,16.61
2023-09-08T22:33:30.602Z,16.60
2023-09-08T22:35:59.302Z,16.57
2023-09-08T22:38:27.925Z,16.60
2023-09-08T22:40:56.344Z,16.69
2023-09-08T22:43:25.819Z,16.68
2023-09-08T22:45:57.112Z,16.62
2023-09-08T22:48:25.570Z,16.59
2023-09-08T22:50:53.960Z,16.57
2023-09-08T22:53:22.409Z,16.54
2023-09-08T22:55:50.895Z,16.51
2023-09-08T22:58:19.356Z,16.47
2023-09-08T23:00:47.884Z,16.43
2023-09-08T23:03:16.331Z,16.39
2023-09-08T23:05:45.217Z,16.36
2023-09-08T23:08:13.619Z,16.32
2023-09-08T23:10:41.968Z,16.28
2023-09-08T23:13:10.276Z,16.24
2023-09-08T23:15:38.776Z,16.21
2023-09-08T23:18:10.678Z,16.20
2023-09-08T23:20:42.159Z,16.18
2023-09-08T23:23:10.645Z,16.16
2023-09-08T23:25:39.031Z,16.14
2023-09-08T23:28:07.493Z,16.11
2023-09-08T23:30:36.662Z,16.08
2023-09-08T23:33:07.683Z,16.05
2023-09-08T23:35:36.217Z,16.01
2023-09-08T23:38:04.958Z,15.97
2023-09-08T23:40:39.758Z,15.95
2023-09-08T23:43:08.329Z,15.91
2023-09-08T23:45:37.997Z,15.88
2023-09-08T23:48:06.786Z,15.87
2023-09-08T23:50:59.633Z,15.84
2023-09-08T23:53:29.754Z,15.81
2023-09-08T23:56:05.940Z,15.79
2023-09-08T23:58:34.310Z,15.75
